sensor_id;sensor_type;location;lat;lon;timestamp;P1;durP1;ratioP1;P2;durP2;ratioP2
76380;SDS011;65202;52.520;10.528;2024-03-06T00:00:40;25.67;;;14.35;;
76380;SDS011;65202;52.520;10.528;2024-03-06T00:03:07;31.08;;;13.75;;
76380;SDS011;65202;52.520;10.528;2024-03-06T00:05:35;26.30;;;13.85;;
76380;SDS011;65202;52.520;10.528;2024-03-06T00:08:02;26.80;;;14.57;;
76380;SDS011;65202;52.520;10.528;2024-03-06T00:10:31;23.33;;;14.48;;
76380;SDS011;65202;52.520;10.528;2024-03-06T00:12:58;21.42;;;13.35;;
76380;SDS011;65202;52.520;10.528;2024-03-06T00:15:26;22.20;;;14.20;;
76380;SDS011;65202;52.520;10.528;2024-03-06T00:17:54;27.17;;;14.15;;
76380;SDS011;65202;52.520;10.528;2024-03-06T00:20:22;27.35;;;14.93;;
76380;SDS011;65202;52.520;10.528;2024-03-06T00:22:49;27.05;;;14.73;;
76380;SDS011;65202;52.520;10.528;2024-03-06T00:25:17;25.70;;;14.75;;
76380;SDS011;65202;52.520;10.528;2024-03-06T00:27:44;27.63;;;15.43;;
76380;SDS011;65202;52.520;10.528;2024-03-06T00:30:11;26.30;;;14.82;;
76380;SDS011;65202;52.520;10.528;2024-03-06T00:32:39;30.25;;;14.95;;
76380;SDS011;65202;52.520;10.528;2024-03-06T00:35:07;35.03;;;16.50;;
76380;SDS011;65202;52.520;10.528;2024-03-06T00:37:35;28.38;;;15.43;;
76380;SDS011;65202;52.520;10.528;2024-03-06T00:40:03;25.10;;;14.95;;
76380;SDS011;65202;52.520;10.528;2024-03-06T00:42:31;24.77;;;15.38;;
76380;SDS011;65202;52.520;10.528;2024-03-06T00:44:59;26.75;;;15.70;;
76380;SDS011;65202;52.520;10.528;2024-03-06T00:47:26;29.25;;;15.85;;
76380;SDS011;65202;52.520;10.528;2024-03-06T00:49:54;28.67;;;16.02;;
76380;SDS011;65202;52.520;10.528;2024-03-06T00:52:21;27.23;;;16.17;;
76380;SDS011;65202;52.520;10.528;2024-03-06T00:54:49;24.45;;;15.90;;
76380;SDS011;65202;52.520;10.528;2024-03-06T00:57:16;31.40;;;16.38;;
76380;SDS011;65202;52.520;10.528;2024-03-06T00:59:44;29.10;;;16.58;;
76380;SDS011;65202;52.520;10.528;2024-03-06T01:02:11;26.95;;;16.65;;
76380;SDS011;65202;52.520;10.528;2024-03-06T01:04:39;28.08;;;16.45;;
76380;SDS011;65202;52.520;10.528;2024-03-06T01:07:07;29.33;;;17.30;;
76380;SDS011;65202;52.520;10.528;2024-03-06T01:09:35;31.27;;;17.38;;
76380;SDS011;65202;52.520;10.528;2024-03-06T01:12:02;29.40;;;17.05;;
76380;SDS011;65202;52.520;10.528;2024-03-06T01:14:30;30.23;;;17.90;;
76380;SDS011;65202;52.520;10.528;2024-03-06T01:16:58;30.23;;;17.60;;
76380;SDS011;65202;52.520;10.528;2024-03-06T01:19:26;31.88;;;17.30;;
76380;SDS011;65202;52.520;10.528;2024-03-06T01:21:53;37.47;;;18.52;;
76380;SDS011;65202;52.520;10.528;2024-03-06T01:24:21;31.20;;;18.15;;
76380;SDS011;65202;52.520;10.528;2024-03-06T01:26:48;28.85;;;17.73;;
76380;SDS011;65202;52.520;10.528;2024-03-06T01:29:16;32.40;;;17.17;;
76380;SDS011;65202;52.520;10.528;2024-03-06T01:31:45;30.67;;;16.70;;
76380;SDS011;65202;52.520;10.528;2024-03-06T01:34:14;36.80;;;17.95;;
76380;SDS011;65202;52.520;10.528;2024-03-06T01:36:41;28.75;;;17.27;;
76380;SDS011;65202;52.520;10.528;2024-03-06T01:39:08;36.90;;;17.05;;
76380;SDS011;65202;52.520;10.528;2024-03-06T01:41:36;32.65;;;16.60;;
76380;SDS011;65202;52.520;10.528;2024-03-06T01:44:04;29.95;;;17.13;;
76380;SDS011;65202;52.520;10.528;2024-03-06T01:46:31;27.80;;;16.77;;
76380;SDS011;65202;52.520;10.528;2024-03-06T01:48:59;32.97;;;16.85;;
76380;SDS011;65202;52.520;10.528;2024-03-06T01:51:30;30.30;;;16.88;;
76380;SDS011;65202;52.520;10.528;2024-03-06T01:54:00;28.23;;;17.13;;
76380;SDS011;65202;52.520;10.528;2024-03-06T01:56:32;22.33;;;12.57;;
76380;SDS011;65202;52.520;10.528;2024-03-06T01:59:02;28.77;;;16.45;;
76380;SDS011;65202;52.520;10.528;2024-03-06T02:01:31;30.25;;;16.83;;
76380;SDS011;65202;52.520;10.528;2024-03-06T02:03:59;28.50;;;16.67;;
76380;SDS011;65202;52.520;10.528;2024-03-06T02:06:28;28.83;;;17.13;;
76380;SDS011;65202;52.520;10.528;2024-03-06T02:08:56;30.52;;;17.73;;
76380;SDS011;65202;52.520;10.528;2024-03-06T02:11:24;33.22;;;17.50;;
76380;SDS011;65202;52.520;10.528;2024-03-06T02:13:51;30.00;;;16.92;;
76380;SDS011;65202;52.520;10.528;2024-03-06T02:16:19;28.10;;;16.60;;
76380;SDS011;65202;52.520;10.528;2024-03-06T02:18:55;30.70;;;17.48;;
76380;SDS011;65202;52.520;10.528;2024-03-06T02:21:27;32.47;;;16.85;;
76380;SDS011;65202;52.520;10.528;2024-03-06T02:23:54;26.60;;;15.95;;
76380;SDS011;65202;52.520;10.528;2024-03-06T02:26:22;31.73;;;17.13;;
76380;SDS011;65202;52.520;10.528;2024-03-06T02:28:51;25.52;;;15.77;;
76380;SDS011;65202;52.520;10.528;2024-03-06T02:31:21;32.97;;;16.75;;
76380;SDS011;65202;52.520;10.528;2024-03-06T02:33:50;33.85;;;17.50;;
76380;SDS011;65202;52.520;10.528;2024-03-06T02:36:17;28.90;;;16.20;;
76380;SDS011;65202;52.520;10.528;2024-03-06T02:38:45;28.88;;;16.80;;
76380;SDS011;65202;52.520;10.528;2024-03-06T02:41:13;28.83;;;16.27;;
76380;SDS011;65202;52.520;10.528;2024-03-06T02:43:43;29.48;;;16.35;;
76380;SDS011;65202;52.520;10.528;2024-03-06T02:46:11;29.10;;;15.65;;
76380;SDS011;65202;52.520;10.528;2024-03-06T02:48:38;26.17;;;16.05;;
76380;SDS011;65202;52.520;10.528;2024-03-06T02:51:06;30.98;;;17.98;;
76380;SDS011;65202;52.520;10.528;2024-03-06T02:53:33;28.35;;;16.90;;
76380;SDS011;65202;52.520;10.528;2024-03-06T02:56:01;33.38;;;17.00;;
76380;SDS011;65202;52.520;10.528;2024-03-06T02:58:28;30.77;;;16.65;;
76380;SDS011;65202;52.520;10.528;2024-03-06T03:00:58;31.55;;;17.60;;
76380;SDS011;65202;52.520;10.528;2024-03-06T03:03:26;27.48;;;16.63;;
76380;SDS011;65202;52.520;10.528;2024-03-06T03:05:53;31.10;;;17.17;;
76380;SDS011;65202;52.520;10.528;2024-03-06T03:08:21;31.50;;;16.85;;
76380;SDS011;65202;52.520;10.528;2024-03-06T03:10:48;30.55;;;17.98;;
76380;SDS011;65202;52.520;10.528;2024-03-06T03:13:16;35.20;;;17.40;;
76380;SDS011;65202;52.520;10.528;2024-03-06T03:15:43;30.00;;;16.77;;
76380;SDS011;65202;52.520;10.528;2024-03-06T03:18:11;30.92;;;17.80;;
76380;SDS011;65202;52.520;10.528;2024-03-06T03:20:38;31.38;;;17.02;;
76380;SDS011;65202;52.520;10.528;2024-03-06T03:23:05;34.35;;;18.33;;
76380;SDS011;65202;52.520;10.528;2024-03-06T03:25:39;30.05;;;17.30;;
76380;SDS011;65202;52.520;10.528;2024-03-06T03:28:07;34.42;;;18.15;;
76380;SDS011;65202;52.520;10.528;2024-03-06T03:30:34;33.55;;;17.85;;
76380;SDS011;65202;52.520;10.528;2024-03-06T03:33:01;30.02;;;17.25;;
76380;SDS011;65202;52.520;10.528;2024-03-06T03:35:30;32.00;;;17.95;;
76380;SDS011;65202;52.520;10.528;2024-03-06T03:37:58;33.55;;;18.00;;
76380;SDS011;65202;52.520;10.528;2024-03-06T03:40:26;29.30;;;17.77;;
76380;SDS011;65202;52.520;10.528;2024-03-06T03:42:53;30.75;;;19.10;;
76380;SDS011;65202;52.520;10.528;2024-03-06T03:45:20;33.53;;;18.52;;
76380;SDS011;65202;52.520;10.528;2024-03-06T03:47:48;38.60;;;19.83;;
76380;SDS011;65202;52.520;10.528;2024-03-06T03:50:16;31.98;;;19.00;;
76380;SDS011;65202;52.520;10.528;2024-03-06T03:52:43;34.08;;;19.15;;
76380;SDS011;65202;52.520;10.528;2024-03-06T03:55:11;32.28;;;18.60;;
76380;SDS011;65202;52.520;10.528;2024-03-06T03:57:38;34.45;;;18.95;;
76380;SDS011;65202;52.520;10.528;2024-03-06T04:00:06;36.90;;;20.13;;
76380;SDS011;65202;52.520;10.528;2024-03-06T04:02:38;34.63;;;19.55;;
76380;SDS011;65202;52.520;10.528;2024-03-06T04:05:05;35.15;;;20.25;;
76380;SDS011;65202;52.520;10.528;2024-03-06T04:07:33;35.15;;;20.20;;
76380;SDS011;65202;52.520;10.528;2024-03-06T04:10:01;33.95;;;20.02;;
76380;SDS011;65202;52.520;10.528;2024-03-06T04:12:29;36.95;;;20.58;;
76380;SDS011;65202;52.520;10.528;2024-03-06T04:14:57;35.42;;;20.98;;
76380;SDS011;65202;52.520;10.528;2024-03-06T04:17:25;36.22;;;20.13;;
76380;SDS011;65202;52.520;10.528;2024-03-06T04:19:52;37.75;;;21.05;;
76380;SDS011;65202;52.520;10.528;2024-03-06T04:22:20;34.40;;;20.67;;
76380;SDS011;65202;52.520;10.528;2024-03-06T04:24:47;37.50;;;20.63;;
76380;SDS011;65202;52.520;10.528;2024-03-06T04:27:15;37.28;;;20.85;;
76380;SDS011;65202;52.520;10.528;2024-03-06T04:29:43;43.15;;;22.25;;
76380;SDS011;65202;52.520;10.528;2024-03-06T04:32:11;36.53;;;20.70;;
76380;SDS011;65202;52.520;10.528;2024-03-06T04:34:38;38.72;;;22.10;;
76380;SDS011;65202;52.520;10.528;2024-03-06T04:37:06;40.10;;;21.65;;
76380;SDS011;65202;52.520;10.528;2024-03-06T04:39:33;42.65;;;20.95;;
76380;SDS011;65202;52.520;10.528;2024-03-06T04:42:00;39.72;;;21.50;;
76380;SDS011;65202;52.520;10.528;2024-03-06T04:44:28;37.45;;;20.92;;
76380;SDS011;65202;52.520;10.528;2024-03-06T04:46:56;38.60;;;22.95;;
76380;SDS011;65202;52.520;10.528;2024-03-06T04:49:23;40.38;;;22.15;;
76380;SDS011;65202;52.520;10.528;2024-03-06T04:51:51;35.08;;;20.95;;
76380;SDS011;65202;52.520;10.528;2024-03-06T04:54:18;40.67;;;22.10;;
76380;SDS011;65202;52.520;10.528;2024-03-06T04:56:45;43.20;;;24.30;;
76380;SDS011;65202;52.520;10.528;2024-03-06T04:59:13;44.50;;;24.85;;
76380;SDS011;65202;52.520;10.528;2024-03-06T05:01:42;41.58;;;23.23;;
76380;SDS011;65202;52.520;10.528;2024-03-06T05:04:10;40.80;;;22.75;;
76380;SDS011;65202;52.520;10.528;2024-03-06T05:06:55;41.13;;;22.50;;
76380;SDS011;65202;52.520;10.528;2024-03-06T05:09:40;39.20;;;23.13;;
76380;SDS011;65202;52.520;10.528;2024-03-06T05:12:27;42.65;;;22.55;;
76380;SDS011;65202;52.520;10.528;2024-03-06T05:15:12;41.97;;;22.38;;
76380;SDS011;65202;52.520;10.528;2024-03-06T05:17:57;45.85;;;23.42;;
76380;SDS011;65202;52.520;10.528;2024-03-06T05:20:43;39.85;;;23.02;;
76380;SDS011;65202;52.520;10.528;2024-03-06T05:23:28;43.65;;;24.95;;
76380;SDS011;65202;52.520;10.528;2024-03-06T05:26:14;41.13;;;23.95;;
76380;SDS011;65202;52.520;10.528;2024-03-06T05:28:59;46.05;;;24.98;;
76380;SDS011;65202;52.520;10.528;2024-03-06T05:31:45;44.20;;;24.77;;
76380;SDS011;65202;52.520;10.528;2024-03-06T05:34:29;45.70;;;24.90;;
76380;SDS011;65202;52.520;10.528;2024-03-06T05:37:15;49.60;;;25.67;;
76380;SDS011;65202;52.520;10.528;2024-03-06T05:40:00;40.85;;;24.92;;
76380;SDS011;65202;52.520;10.528;2024-03-06T05:42:44;45.05;;;24.63;;
76380;SDS011;65202;52.520;10.528;2024-03-06T05:45:30;53.22;;;25.30;;
76380;SDS011;65202;52.520;10.528;2024-03-06T05:48:14;48.90;;;25.60;;
76380;SDS011;65202;52.520;10.528;2024-03-06T05:51:00;40.03;;;24.38;;
76380;SDS011;65202;52.520;10.528;2024-03-06T05:53:45;43.33;;;24.17;;
76380;SDS011;65202;52.520;10.528;2024-03-06T05:56:31;50.03;;;25.33;;
76380;SDS011;65202;52.520;10.528;2024-03-06T05:59:16;46.58;;;24.35;;
76380;SDS011;65202;52.520;10.528;2024-03-06T06:01:44;48.70;;;24.98;;
76380;SDS011;65202;52.520;10.528;2024-03-06T06:04:13;46.22;;;25.30;;
76380;SDS011;65202;52.520;10.528;2024-03-06T06:06:41;44.08;;;25.85;;
76380;SDS011;65202;52.520;10.528;2024-03-06T06:09:08;48.40;;;27.40;;
76380;SDS011;65202;52.520;10.528;2024-03-06T06:11:43;45.65;;;26.60;;
76380;SDS011;65202;52.520;10.528;2024-03-06T06:14:12;47.53;;;27.63;;
76380;SDS011;65202;52.520;10.528;2024-03-06T06:16:39;48.45;;;26.10;;
76380;SDS011;65202;52.520;10.528;2024-03-06T06:19:09;45.80;;;25.05;;
76380;SDS011;65202;52.520;10.528;2024-03-06T06:21:37;41.25;;;23.60;;
76380;SDS011;65202;52.520;10.528;2024-03-06T06:24:04;45.00;;;24.75;;
76380;SDS011;65202;52.520;10.528;2024-03-06T06:26:32;47.85;;;26.33;;
76380;SDS011;65202;52.520;10.528;2024-03-06T06:29:00;47.08;;;26.05;;
76380;SDS011;65202;52.520;10.528;2024-03-06T06:31:27;49.90;;;25.98;;
76380;SDS011;65202;52.520;10.528;2024-03-06T06:33:55;45.85;;;25.35;;
76380;SDS011;65202;52.520;10.528;2024-03-06T06:36:23;50.90;;;28.23;;
76380;SDS011;65202;52.520;10.528;2024-03-06T06:38:50;56.10;;;30.05;;
76380;SDS011;65202;52.520;10.528;2024-03-06T06:41:20;47.20;;;26.95;;
76380;SDS011;65202;52.520;10.528;2024-03-06T06:43:47;45.03;;;25.33;;
76380;SDS011;65202;52.520;10.528;2024-03-06T06:46:15;44.08;;;24.52;;
76380;SDS011;65202;52.520;10.528;2024-03-06T06:48:44;41.83;;;24.75;;
76380;SDS011;65202;52.520;10.528;2024-03-06T06:51:11;49.47;;;25.55;;
76380;SDS011;65202;52.520;10.528;2024-03-06T06:53:39;42.10;;;24.13;;
76380;SDS011;65202;52.520;10.528;2024-03-06T06:56:08;40.95;;;23.77;;
76380;SDS011;65202;52.520;10.528;2024-03-06T06:58:36;41.13;;;24.92;;
76380;SDS011;65202;52.520;10.528;2024-03-06T07:01:03;38.88;;;24.95;;
76380;SDS011;65202;52.520;10.528;2024-03-06T07:03:31;40.90;;;24.30;;
76380;SDS011;65202;52.520;10.528;2024-03-06T07:05:58;41.22;;;24.50;;
76380;SDS011;65202;52.520;10.528;2024-03-06T07:08:26;43.65;;;24.50;;
76380;SDS011;65202;52.520;10.528;2024-03-06T07:10:53;43.50;;;25.10;;
76380;SDS011;65202;52.520;10.528;2024-03-06T07:13:22;45.72;;;25.65;;
76380;SDS011;65202;52.520;10.528;2024-03-06T07:15:49;43.70;;;24.95;;
76380;SDS011;65202;52.520;10.528;2024-03-06T07:18:17;40.13;;;24.38;;
76380;SDS011;65202;52.520;10.528;2024-03-06T07:20:45;38.72;;;24.80;;
76380;SDS011;65202;52.520;10.528;2024-03-06T07:23:12;41.75;;;23.90;;
76380;SDS011;65202;52.520;10.528;2024-03-06T07:25:40;40.00;;;24.05;;
76380;SDS011;65202;52.520;10.528;2024-03-06T07:28:08;39.22;;;24.33;;
76380;SDS011;65202;52.520;10.528;2024-03-06T07:30:36;40.35;;;24.33;;
76380;SDS011;65202;52.520;10.528;2024-03-06T07:33:03;39.28;;;23.88;;
76380;SDS011;65202;52.520;10.528;2024-03-06T07:35:31;37.08;;;22.95;;
76380;SDS011;65202;52.520;10.528;2024-03-06T07:37:59;38.30;;;23.98;;
76380;SDS011;65202;52.520;10.528;2024-03-06T07:40:26;39.78;;;22.95;;
76380;SDS011;65202;52.520;10.528;2024-03-06T07:42:54;39.38;;;22.77;;
76380;SDS011;65202;52.520;10.528;2024-03-06T07:45:21;36.22;;;21.83;;
76380;SDS011;65202;52.520;10.528;2024-03-06T07:47:49;33.53;;;22.85;;
76380;SDS011;65202;52.520;10.528;2024-03-06T07:50:16;34.83;;;22.33;;
76380;SDS011;65202;52.520;10.528;2024-03-06T07:52:46;35.75;;;21.58;;
76380;SDS011;65202;52.520;10.528;2024-03-06T07:55:14;32.15;;;21.90;;
76380;SDS011;65202;52.520;10.528;2024-03-06T07:57:42;37.28;;;22.48;;
76380;SDS011;65202;52.520;10.528;2024-03-06T08:00:13;37.40;;;21.88;;
76380;SDS011;65202;52.520;10.528;2024-03-06T08:02:41;37.17;;;22.30;;
76380;SDS011;65202;52.520;10.528;2024-03-06T08:05:17;32.45;;;22.48;;
76380;SDS011;65202;52.520;10.528;2024-03-06T08:07:45;36.45;;;22.80;;
76380;SDS011;65202;52.520;10.528;2024-03-06T08:10:13;36.85;;;23.17;;
76380;SDS011;65202;52.520;10.528;2024-03-06T08:12:41;34.33;;;22.60;;
76380;SDS011;65202;52.520;10.528;2024-03-06T08:15:13;36.53;;;22.83;;
76380;SDS011;65202;52.520;10.528;2024-03-06T08:17:42;35.97;;;22.80;;
76380;SDS011;65202;52.520;10.528;2024-03-06T08:20:11;35.60;;;21.88;;
76380;SDS011;65202;52.520;10.528;2024-03-06T08:22:40;35.05;;;22.48;;
76380;SDS011;65202;52.520;10.528;2024-03-06T08:25:10;34.22;;;22.23;;
76380;SDS011;65202;52.520;10.528;2024-03-06T08:27:39;34.92;;;21.45;;
76380;SDS011;65202;52.520;10.528;2024-03-06T08:30:09;33.38;;;21.75;;
76380;SDS011;65202;52.520;10.528;2024-03-06T08:32:37;35.70;;;21.65;;
76380;SDS011;65202;52.520;10.528;2024-03-06T08:35:05;40.92;;;22.13;;
76380;SDS011;65202;52.520;10.528;2024-03-06T08:37:42;32.38;;;21.48;;
76380;SDS011;65202;52.520;10.528;2024-03-06T08:40:09;34.85;;;22.27;;
76380;SDS011;65202;52.520;10.528;2024-03-06T08:42:41;33.83;;;22.53;;
76380;SDS011;65202;52.520;10.528;2024-03-06T08:45:10;34.20;;;22.13;;
76380;SDS011;65202;52.520;10.528;2024-03-06T08:47:38;31.13;;;20.98;;
76380;SDS011;65202;52.520;10.528;2024-03-06T08:50:06;34.97;;;20.88;;
76380;SDS011;65202;52.520;10.528;2024-03-06T08:52:37;34.80;;;22.17;;
76380;SDS011;65202;52.520;10.528;2024-03-06T08:55:06;37.33;;;21.45;;
76380;SDS011;65202;52.520;10.528;2024-03-06T08:57:35;33.50;;;21.77;;
76380;SDS011;65202;52.520;10.528;2024-03-06T09:00:04;34.30;;;21.08;;
76380;SDS011;65202;52.520;10.528;2024-03-06T09:02:37;31.83;;;20.80;;
76380;SDS011;65202;52.520;10.528;2024-03-06T09:05:06;34.72;;;20.35;;
76380;SDS011;65202;52.520;10.528;2024-03-06T09:07:39;28.65;;;19.60;;
76380;SDS011;65202;52.520;10.528;2024-03-06T09:10:10;32.63;;;20.05;;
76380;SDS011;65202;52.520;10.528;2024-03-06T09:12:38;29.67;;;20.75;;
76380;SDS011;65202;52.520;10.528;2024-03-06T09:15:06;30.42;;;19.63;;
76380;SDS011;65202;52.520;10.528;2024-03-06T09:17:34;34.35;;;20.10;;
76380;SDS011;65202;52.520;10.528;2024-03-06T09:20:02;29.35;;;19.27;;
76380;SDS011;65202;52.520;10.528;2024-03-06T09:22:38;30.98;;;19.90;;
76380;SDS011;65202;52.520;10.528;2024-03-06T09:25:07;28.58;;;19.08;;
76380;SDS011;65202;52.520;10.528;2024-03-06T09:27:35;28.88;;;19.40;;
76380;SDS011;65202;52.520;10.528;2024-03-06T09:30:03;26.75;;;18.83;;
76380;SDS011;65202;52.520;10.528;2024-03-06T09:32:31;29.27;;;19.70;;
76380;SDS011;65202;52.520;10.528;2024-03-06T09:34:59;26.63;;;18.85;;
76380;SDS011;65202;52.520;10.528;2024-03-06T09:37:27;27.33;;;19.17;;
76380;SDS011;65202;52.520;10.528;2024-03-06T09:39:55;26.33;;;18.73;;
76380;SDS011;65202;52.520;10.528;2024-03-06T09:42:23;27.83;;;18.70;;
76380;SDS011;65202;52.520;10.528;2024-03-06T09:44:52;27.23;;;18.67;;
76380;SDS011;65202;52.520;10.528;2024-03-06T09:47:21;28.13;;;18.52;;
76380;SDS011;65202;52.520;10.528;2024-03-06T09:49:51;26.40;;;18.30;;
76380;SDS011;65202;52.520;10.528;2024-03-06T09:52:23;23.37;;;18.43;;
76380;SDS011;65202;52.520;10.528;2024-03-06T09:54:55;24.95;;;18.55;;
76380;SDS011;65202;52.520;10.528;2024-03-06T09:57:23;25.15;;;17.42;;
76380;SDS011;65202;52.520;10.528;2024-03-06T09:59:51;27.52;;;18.48;;
76380;SDS011;65202;52.520;10.528;2024-03-06T10:02:28;24.77;;;17.17;;
76380;SDS011;65202;52.520;10.528;2024-03-06T10:05:05;26.30;;;17.63;;
76380;SDS011;65202;52.520;10.528;2024-03-06T10:07:33;21.73;;;16.85;;
76380;SDS011;65202;52.520;10.528;2024-03-06T10:10:00;24.60;;;16.17;;
76380;SDS011;65202;52.520;10.528;2024-03-06T10:12:28;25.88;;;16.45;;
76380;SDS011;65202;52.520;10.528;2024-03-06T10:14:57;30.73;;;18.52;;
76380;SDS011;65202;52.520;10.528;2024-03-06T10:17:24;23.48;;;15.70;;
76380;SDS011;65202;52.520;10.528;2024-03-06T10:19:55;25.00;;;15.52;;
76380;SDS011;65202;52.520;10.528;2024-03-06T10:22:25;23.70;;;15.80;;
76380;SDS011;65202;52.520;10.528;2024-03-06T10:24:56;24.77;;;16.55;;
76380;SDS011;65202;52.520;10.528;2024-03-06T10:27:24;32.03;;;17.30;;
76380;SDS011;65202;52.520;10.528;2024-03-06T10:30:03;27.45;;;18.15;;
76380;SDS011;65202;52.520;10.528;2024-03-06T10:32:33;25.88;;;16.40;;
76380;SDS011;65202;52.520;10.528;2024-03-06T10:35:01;23.25;;;16.35;;
76380;SDS011;65202;52.520;10.528;2024-03-06T10:37:28;25.02;;;15.80;;
76380;SDS011;65202;52.520;10.528;2024-03-06T10:39:56;23.77;;;15.43;;
76380;SDS011;65202;52.520;10.528;2024-03-06T10:42:29;30.52;;;16.52;;
76380;SDS011;65202;52.520;10.528;2024-03-06T10:44:58;24.30;;;16.73;;
76380;SDS011;65202;52.520;10.528;2024-03-06T10:47:28;26.35;;;16.92;;
76380;SDS011;65202;52.520;10.528;2024-03-06T10:49:58;27.50;;;17.85;;
76380;SDS011;65202;52.520;10.528;2024-03-06T10:52:28;27.10;;;17.30;;
76380;SDS011;65202;52.520;10.528;2024-03-06T10:55:00;25.53;;;15.80;;
76380;SDS011;65202;52.520;10.528;2024-03-06T10:57:29;26.77;;;16.67;;
76380;SDS011;65202;52.520;10.528;2024-03-06T10:59:57;27.00;;;16.65;;
76380;SDS011;65202;52.520;10.528;2024-03-06T11:02:30;28.42;;;17.02;;
76380;SDS011;65202;52.520;10.528;2024-03-06T11:04:58;25.80;;;16.27;;
76380;SDS011;65202;52.520;10.528;2024-03-06T11:07:26;23.85;;;16.98;;
76380;SDS011;65202;52.520;10.528;2024-03-06T11:09:54;25.23;;;16.35;;
76380;SDS011;65202;52.520;10.528;2024-03-06T11:12:34;29.97;;;16.33;;
76380;SDS011;65202;52.520;10.528;2024-03-06T11:15:15;26.42;;;17.17;;
76380;SDS011;65202;52.520;10.528;2024-03-06T11:17:44;31.08;;;17.35;;
76380;SDS011;65202;52.520;10.528;2024-03-06T11:20:18;27.15;;;17.77;;
76380;SDS011;65202;52.520;10.528;2024-03-06T11:28:18;25.95;;;17.10;;
76380;SDS011;65202;52.520;10.528;2024-03-06T11:30:46;28.77;;;17.38;;
76380;SDS011;65202;52.520;10.528;2024-03-06T11:33:15;28.83;;;17.92;;
76380;SDS011;65202;52.520;10.528;2024-03-06T11:41:26;27.85;;;18.00;;
76380;SDS011;65202;52.520;10.528;2024-03-06T11:43:55;26.38;;;17.00;;
76380;SDS011;65202;52.520;10.528;2024-03-06T11:46:42;29.55;;;17.25;;
76380;SDS011;65202;52.520;10.528;2024-03-06T11:49:20;28.60;;;18.23;;
76380;SDS011;65202;52.520;10.528;2024-03-06T11:51:53;26.00;;;17.95;;
76380;SDS011;65202;52.520;10.528;2024-03-06T11:54:26;24.35;;;17.10;;
76380;SDS011;65202;52.520;10.528;2024-03-06T11:56:55;30.67;;;17.55;;
76380;SDS011;65202;52.520;10.528;2024-03-06T11:59:25;30.10;;;17.67;;
76380;SDS011;65202;52.520;10.528;2024-03-06T12:01:58;28.58;;;18.42;;
76380;SDS011;65202;52.520;10.528;2024-03-06T12:04:35;23.48;;;16.65;;
76380;SDS011;65202;52.520;10.528;2024-03-06T12:07:06;32.78;;;17.58;;
76380;SDS011;65202;52.520;10.528;2024-03-06T12:09:35;26.40;;;18.75;;
76380;SDS011;65202;52.520;10.528;2024-03-06T12:12:10;26.42;;;17.75;;
76380;SDS011;65202;52.520;10.528;2024-03-06T12:14:39;33.38;;;17.80;;
76380;SDS011;65202;52.520;10.528;2024-03-06T12:17:11;26.52;;;17.73;;
76380;SDS011;65202;52.520;10.528;2024-03-06T12:19:43;24.35;;;16.95;;
76380;SDS011;65202;52.520;10.528;2024-03-06T12:22:12;24.88;;;16.75;;
76380;SDS011;65202;52.520;10.528;2024-03-06T12:24:41;30.48;;;17.60;;
76380;SDS011;65202;52.520;10.528;2024-03-06T12:27:08;28.65;;;18.60;;
76380;SDS011;65202;52.520;10.528;2024-03-06T12:29:37;28.20;;;17.83;;
76380;SDS011;65202;52.520;10.528;2024-03-06T12:32:15;28.63;;;18.67;;
76380;SDS011;65202;52.520;10.528;2024-03-06T12:34:55;24.45;;;16.83;;
76380;SDS011;65202;52.520;10.528;2024-03-06T12:37:30;28.40;;;17.88;;
76380;SDS011;65202;52.520;10.528;2024-03-06T12:39:59;26.58;;;17.50;;
76380;SDS011;65202;52.520;10.528;2024-03-06T12:42:27;26.08;;;18.02;;
76380;SDS011;65202;52.520;10.528;2024-03-06T12:44:55;27.52;;;16.42;;
76380;SDS011;65202;52.520;10.528;2024-03-06T12:47:24;28.55;;;17.30;;
76380;SDS011;65202;52.520;10.528;2024-03-06T12:49:51;28.25;;;16.95;;
76380;SDS011;65202;52.520;10.528;2024-03-06T12:52:19;25.67;;;16.75;;
76380;SDS011;65202;52.520;10.528;2024-03-06T12:54:46;30.75;;;16.45;;
76380;SDS011;65202;52.520;10.528;2024-03-06T12:57:14;29.80;;;18.27;;
76380;SDS011;65202;52.520;10.528;2024-03-06T12:59:41;24.80;;;17.02;;
76380;SDS011;65202;52.520;10.528;2024-03-06T13:02:08;27.95;;;17.77;;
76380;SDS011;65202;52.520;10.528;2024-03-06T13:04:36;28.85;;;17.40;;
76380;SDS011;65202;52.520;10.528;2024-03-06T13:07:03;27.77;;;17.65;;
76380;SDS011;65202;52.520;10.528;2024-03-06T13:09:31;26.20;;;16.60;;
76380;SDS011;65202;52.520;10.528;2024-03-06T13:11:59;30.73;;;17.35;;
76380;SDS011;65202;52.520;10.528;2024-03-06T13:14:29;24.63;;;16.63;;
76380;SDS011;65202;52.520;10.528;2024-03-06T13:16:57;26.83;;;17.70;;
76380;SDS011;65202;52.520;10.528;2024-03-06T13:19:27;27.60;;;17.48;;
76380;SDS011;65202;52.520;10.528;2024-03-06T13:21:55;24.25;;;16.45;;
76380;SDS011;65202;52.520;10.528;2024-03-06T13:24:23;25.92;;;17.48;;
76380;SDS011;65202;52.520;10.528;2024-03-06T13:26:50;24.10;;;17.30;;
76380;SDS011;65202;52.520;10.528;2024-03-06T13:29:18;31.48;;;17.08;;
76380;SDS011;65202;52.520;10.528;2024-03-06T13:31:45;27.23;;;18.35;;
76380;SDS011;65202;52.520;10.528;2024-03-06T13:34:13;29.35;;;17.80;;
76380;SDS011;65202;52.520;10.528;2024-03-06T13:36:40;31.33;;;18.08;;
76380;SDS011;65202;52.520;10.528;2024-03-06T13:39:08;25.92;;;17.02;;
76380;SDS011;65202;52.520;10.528;2024-03-06T13:41:36;23.52;;;17.02;;
76380;SDS011;65202;52.520;10.528;2024-03-06T13:44:03;24.23;;;17.00;;
76380;SDS011;65202;52.520;10.528;2024-03-06T13:46:31;25.38;;;17.42;;
76380;SDS011;65202;52.520;10.528;2024-03-06T13:49:00;28.52;;;17.58;;
76380;SDS011;65202;52.520;10.528;2024-03-06T13:51:27;26.52;;;17.67;;
76380;SDS011;65202;52.520;10.528;2024-03-06T13:53:55;26.45;;;16.80;;
76380;SDS011;65202;52.520;10.528;2024-03-06T13:56:22;27.27;;;17.48;;
76380;SDS011;65202;52.520;10.528;2024-03-06T13:58:50;25.88;;;17.17;;
76380;SDS011;65202;52.520;10.528;2024-03-06T14:01:17;26.60;;;17.23;;
76380;SDS011;65202;52.520;10.528;2024-03-06T14:03:45;24.73;;;17.83;;
76380;SDS011;65202;52.520;10.528;2024-03-06T14:06:12;32.80;;;18.85;;
76380;SDS011;65202;52.520;10.528;2024-03-06T14:08:40;29.23;;;18.15;;
76380;SDS011;65202;52.520;10.528;2024-03-06T14:11:08;24.75;;;18.35;;
76380;SDS011;65202;52.520;10.528;2024-03-06T14:13:36;26.15;;;18.55;;
76380;SDS011;65202;52.520;10.528;2024-03-06T14:16:04;28.48;;;18.45;;
76380;SDS011;65202;52.520;10.528;2024-03-06T14:18:31;29.17;;;18.25;;
76380;SDS011;65202;52.520;10.528;2024-03-06T14:20:59;27.48;;;17.95;;
76380;SDS011;65202;52.520;10.528;2024-03-06T14:23:26;26.30;;;17.35;;
76380;SDS011;65202;52.520;10.528;2024-03-06T14:25:54;26.13;;;16.90;;
76380;SDS011;65202;52.520;10.528;2024-03-06T14:28:21;30.13;;;18.27;;
76380;SDS011;65202;52.520;10.528;2024-03-06T14:30:48;30.98;;;19.67;;
76380;SDS011;65202;52.520;10.528;2024-03-06T14:33:16;26.70;;;18.45;;